This is the latest recevied weather packets stored in our database for station/object IK0TIX. If no packets are shown the sender has not sent any weather packets the latest 10 day(s).
| Time | Temp. | Humidity | Pressure | Rain* | Wind** | Luminosity | Snow |
|---|---|---|---|---|---|---|---|
| 1777853384 | 15.56° C | 76% | 1019.8 hPa | 0 mm | - | - | - |
| 1777853081 | 15.56° C | 76% | 1019.9 hPa | 0 mm | - | - | - |
| 1777852175 | 16.11° C | 76% | 1020.1 hPa | 0 mm | - | - | - |
| 1777849485 | 16.11° C | 75% | 1020.6 hPa | 0 mm | - | - | - |
| 1777848608 | 16.67° C | 74% | 1020.6 hPa | 0 mm | - | - | - |
| 1777848284 | 16.67° C | 74% | 1020.6 hPa | 0 mm | - | - | - |
| 1777847680 | 16.67° C | 74% | 1020.7 hPa | 0 mm | - | - | - |
| 1777844680 | 16.67° C | 74% | 1020.7 hPa | 0 mm | - | - | - |
| 1777843183 | 17.22° C | 73% | 1020.5 hPa | 0 mm | - | - | - |
| 1777840476 | 17.78° C | 71% | 1020.5 hPa | 0 mm | - | - | - |
| 1777839304 | 18.33° C | 71% | 1020.5 hPa | 0 mm | - | - | - |
| 1777836884 | 18.33° C | 71% | 1020.2 hPa | 0 mm | - | - | - |
| 1777836603 | 18.33° C | 71% | 1020.1 hPa | 0 mm | - | - | - |
| 1777835687 | 18.33° C | 71% | 1020 hPa | 0 mm | - | - | - |
| 1777835379 | 18.33° C | 71% | 1019.9 hPa | 0 mm | - | - | - |
| 1777834182 | 18.33° C | 71% | 1019.6 hPa | 0 mm | - | - | - |
| 1777833304 | 18.33° C | 70% | 1019.5 hPa | 0 mm | - | - | - |
| 1777832969 | 18.33° C | 70% | 1019.5 hPa | 0 mm | - | - | - |
| 1777832693 | 18.33° C | 69% | 1019.5 hPa | 0 mm | - | - | - |
| 1777829978 | 19.44° C | 63% | 1019.3 hPa | 0 mm | - | - | - |
| 1777826989 | 22.22° C | 52% | 1018.7 hPa | 0 mm | - | - | - |
| 1777826379 | 22.78° C | 52% | 1018.7 hPa | 0 mm | - | - | - |
| 1777821274 | 22.22° C | 52% | 1019.2 hPa | 0 mm | - | - | - |
| 1777820098 | 22.22° C | 52% | 1019.6 hPa | 0 mm | - | - | - |
| 1777819787 | 22.22° C | 52% | 1019.7 hPa | 0 mm | - | - | - |
* Rain latest hour (hover to see other rain measurements)
** Current wind speed in m/s (hover to see current wind gust speed)